createdAt,value
2018-04-28T00:00:36.115Z,14.98
2018-04-28T00:03:04.655Z,14.99
2018-04-28T00:05:32.920Z,14.94
2018-04-28T00:08:01.248Z,14.89
2018-04-28T00:10:30.393Z,14.88
2018-04-28T00:12:58.682Z,14.88
2018-04-28T00:15:27.003Z,14.82
2018-04-28T00:17:56.138Z,14.75
2018-04-28T00:20:24.463Z,14.74
2018-04-28T00:22:55.602Z,14.75
2018-04-28T00:25:29.677Z,14.76
2018-04-28T00:31:13.283Z,14.71
2018-04-28T00:33:43.104Z,14.71
2018-04-28T00:36:22.116Z,14.67
2018-04-28T00:38:55.816Z,14.75
2018-04-28T00:41:24.094Z,14.75
2018-04-28T00:43:53.947Z,14.66
2018-04-28T00:46:29.082Z,14.63
2018-04-28T00:48:59.039Z,14.58
2018-04-28T00:51:30.107Z,14.62
2018-04-28T01:00:34.769Z,14.54
2018-04-28T01:03:03.919Z,14.52
2018-04-28T01:05:48.155Z,14.48
2018-04-28T01:08:19.066Z,14.45
2018-04-28T01:10:49.849Z,14.39
2018-04-28T01:13:18.119Z,14.38
2018-04-28T01:15:46.602Z,14.36
2018-04-28T01:18:16.387Z,14.32
2018-04-28T01:20:46.318Z,14.38
2018-04-28T01:23:20.919Z,14.41
2018-04-28T01:25:51.166Z,14.42
2018-04-28T01:28:30.191Z,14.46
2018-04-28T01:31:02.056Z,14.42
2018-04-28T01:33:53.050Z,14.43
2018-04-28T01:39:37.024Z,14.32
2018-04-28T01:45:29.008Z,14.34
2018-04-28T01:48:02.869Z,14.30
2018-04-28T01:50:42.786Z,14.28
2018-04-28T01:53:11.218Z,14.28
2018-04-28T01:55:41.331Z,14.27
2018-04-28T02:01:19.583Z,14.33
2018-04-28T02:03:47.870Z,14.38
2018-04-28T02:06:23.598Z,14.33
2018-04-28T02:08:55.206Z,14.32
2018-04-28T02:11:30.932Z,14.34
2018-04-28T02:13:59.993Z,14.31
2018-04-28T02:16:32.081Z,14.28
2018-04-28T02:19:12.307Z,14.24
2018-04-28T02:24:47.903Z,14.22
2018-04-28T02:27:27.724Z,14.18
2018-04-28T02:30:04.716Z,14.12
2018-04-28T02:32:32.999Z,14.04
2018-04-28T02:35:07.131Z,14.01
2018-04-28T02:37:41.143Z,14.00
2018-04-28T02:40:12.011Z,13.99
2018-04-28T02:42:43.925Z,13.97
2018-04-28T02:45:29.755Z,13.98
2018-04-28T02:48:05.448Z,14.01
2018-04-28T02:50:35.773Z,14.00
2018-04-28T02:53:15.712Z,14.08
2018-04-28T02:55:51.691Z,13.99
2018-04-28T02:58:23.603Z,13.94
2018-04-28T03:00:57.829Z,13.83
2018-04-28T03:03:28.651Z,13.79
2018-04-28T03:05:59.643Z,13.83
2018-04-28T03:08:46.511Z,13.77
2018-04-28T03:11:17.348Z,13.65
2018-04-28T03:13:47.392Z,13.71
2018-04-28T03:16:21.695Z,13.71
2018-04-28T03:18:49.989Z,13.64
2018-04-28T03:21:18.270Z,13.61
2018-04-28T03:23:47.370Z,13.62
2018-04-28T03:26:23.842Z,13.57
2018-04-28T03:28:52.394Z,13.65
2018-04-28T03:31:37.573Z,13.55
2018-04-28T03:37:30.427Z,13.40
2018-04-28T03:43:07.652Z,13.11
2018-04-28T03:45:36.671Z,13.08
2018-04-28T03:48:11.711Z,13.03
2018-04-28T03:50:40.903Z,12.98
2018-04-28T03:53:24.271Z,12.94
2018-04-28T03:55:54.992Z,12.83
2018-04-28T03:58:34.994Z,12.84
2018-04-28T04:01:15.237Z,12.80
2018-04-28T04:03:55.305Z,12.79
2018-04-28T04:09:21.055Z,12.71
2018-04-28T04:12:13.919Z,12.67
2018-04-28T04:14:57.947Z,12.63
2018-04-28T04:17:38.802Z,12.63
2018-04-28T04:23:15.407Z,12.56
2018-04-28T04:26:03.197Z,12.52
2018-04-28T04:28:37.531Z,12.46
2018-04-28T04:31:14.455Z,12.43
2018-04-28T04:36:57.705Z,12.41
2018-04-28T04:39:29.928Z,12.41
2018-04-28T04:45:15.568Z,12.41
2018-04-28T04:47:55.615Z,12.45
2018-04-28T04:50:38.365Z,12.46
2018-04-28T04:56:21.287Z,12.48
2018-04-28T05:02:10.105Z,12.52
2018-04-28T05:04:50.290Z,12.52
2018-04-28T05:07:37.277Z,12.53
2018-04-28T05:10:17.447Z,12.59
2018-04-28T05:15:49.840Z,12.61
2018-04-28T05:18:36.996Z,12.59
2018-04-28T05:21:11.783Z,12.51
2018-04-28T05:23:46.642Z,12.48
2018-04-28T05:29:39.400Z,12.49
2018-04-28T05:32:19.574Z,12.47
2018-04-28T05:35:09.328Z,12.46
2018-04-28T05:37:47.204Z,12.49
2018-04-28T05:40:21.890Z,12.53
2018-04-28T05:43:02.010Z,12.50
2018-04-28T05:48:40.241Z,12.50
2018-04-28T05:51:31.232Z,12.48
2018-04-28T05:54:20.329Z,12.46
2018-04-28T05:59:57.973Z,12.58
2018-04-28T06:05:35.099Z,13.00
2018-04-28T06:11:27.819Z,12.85
2018-04-28T06:14:07.844Z,13.07
2018-04-28T06:19:59.410Z,12.83
2018-04-28T06:22:27.608Z,13.02
2018-04-28T06:24:56.132Z,12.83
2018-04-28T06:27:24.432Z,13.07
2018-04-28T06:29:52.716Z,13.17
2018-04-28T06:32:21.008Z,13.16
2018-04-28T06:34:49.281Z,13.15
2018-04-28T06:37:17.570Z,13.07
2018-04-28T06:39:45.836Z,13.07
2018-04-28T06:42:14.274Z,12.94
2018-04-28T06:44:42.685Z,13.06
2018-04-28T06:47:11.276Z,13.21
2018-04-28T06:49:39.697Z,13.14
2018-04-28T06:52:07.959Z,13.11
2018-04-28T06:54:36.220Z,13.00
2018-04-28T06:57:04.525Z,13.13
2018-04-28T06:59:32.890Z,13.33
2018-04-28T07:02:01.195Z,13.41
2018-04-28T07:04:29.554Z,13.36
2018-04-28T07:06:57.779Z,13.44
2018-04-28T07:09:26.057Z,13.42
2018-04-28T07:11:54.339Z,13.24
2018-04-28T07:14:23.327Z,13.39
2018-04-28T07:16:51.623Z,13.42
2018-04-28T07:19:20.043Z,13.54
2018-04-28T07:21:48.623Z,13.72
2018-04-28T07:24:16.905Z,13.74
2018-04-28T07:26:45.431Z,13.73
2018-04-28T07:29:13.762Z,13.65
2018-04-28T07:31:42.799Z,13.73
2018-04-28T07:34:11.062Z,13.93
2018-04-28T07:36:39.348Z,13.98
2018-04-28T07:39:07.644Z,14.14
2018-04-28T07:41:35.990Z,13.96
2018-04-28T07:44:04.297Z,13.97
2018-04-28T07:46:32.594Z,14.24
2018-04-28T07:49:01.075Z,14.55
2018-04-28T07:51:29.482Z,14.32
2018-04-28T07:53:57.780Z,14.54
2018-04-28T07:56:26.269Z,14.32
2018-04-28T07:58:54.802Z,14.34
2018-04-28T08:01:23.036Z,14.49
2018-04-28T08:03:51.346Z,14.48
2018-04-28T08:06:19.647Z,14.58
2018-04-28T08:08:47.933Z,14.52
2018-04-28T08:11:16.370Z,14.74
2018-04-28T08:13:44.655Z,14.91
2018-04-28T08:16:12.923Z,15.15
2018-04-28T08:18:41.436Z,15.06
2018-04-28T08:21:09.730Z,14.98
2018-04-28T08:23:37.991Z,15.50
2018-04-28T08:26:06.288Z,15.30
2018-04-28T08:28:34.875Z,15.34
2018-04-28T08:31:03.492Z,15.20
2018-04-28T08:33:31.790Z,15.48
2018-04-28T08:36:00.070Z,15.39
2018-04-28T08:38:28.367Z,15.13
2018-04-28T08:40:56.643Z,15.17
2018-04-28T08:43:24.942Z,15.28
2018-04-28T08:45:53.390Z,15.35
2018-04-28T08:48:21.887Z,15.32
2018-04-28T08:50:50.186Z,15.32
2018-04-28T08:53:18.625Z,15.46
2018-04-28T08:55:46.907Z,15.78
2018-04-28T08:58:15.195Z,15.84
2018-04-28T09:01:02.150Z,15.98
2018-04-28T09:03:30.412Z,15.37
2018-04-28T09:05:58.694Z,15.57
2018-04-28T09:08:26.973Z,15.64
2018-04-28T09:10:55.401Z,15.75
2018-04-28T09:13:23.665Z,16.11
2018-04-28T09:15:51.963Z,16.11
2018-04-28T09:18:20.233Z,16.20
2018-04-28T09:20:48.538Z,16.43
2018-04-28T09:23:16.815Z,16.28
2018-04-28T09:25:45.113Z,16.11
2018-04-28T09:28:13.376Z,16.35
2018-04-28T09:30:41.659Z,16.15
2018-04-28T09:33:09.939Z,16.75
2018-04-28T09:35:38.476Z,16.97
2018-04-28T09:38:06.839Z,17.23
2018-04-28T09:40:35.067Z,17.04
2018-04-28T09:43:03.379Z,16.79
2018-04-28T09:45:31.638Z,16.63
2018-04-28T09:47:59.942Z,16.76
2018-04-28T09:50:28.220Z,16.32
2018-04-28T09:52:56.480Z,16.45
2018-04-28T09:55:24.750Z,17.20
2018-04-28T09:58:04.700Z,17.41
2018-04-28T10:03:36.641Z,16.40
2018-04-28T10:06:04.929Z,16.55
2018-04-28T10:08:34.252Z,16.49
2018-04-28T10:11:02.547Z,16.49
2018-04-28T10:13:30.947Z,16.35
2018-04-28T10:15:59.273Z,16.61
2018-04-28T10:18:27.654Z,16.55
2018-04-28T10:20:55.925Z,16.39
2018-04-28T10:23:24.218Z,16.57
2018-04-28T10:25:52.486Z,16.49
2018-04-28T10:28:20.773Z,16.31
2018-04-28T10:30:49.113Z,16.38
2018-04-28T10:33:17.553Z,16.25
2018-04-28T10:35:45.828Z,16.38
2018-04-28T10:38:14.203Z,16.61
2018-04-28T10:40:42.497Z,16.39
2018-04-28T10:43:10.758Z,16.40
2018-04-28T10:45:39.076Z,16.41
2018-04-28T10:48:07.831Z,17.27
2018-04-28T10:50:36.297Z,17.67
2018-04-28T10:53:04.561Z,18.02
2018-04-28T10:55:32.856Z,17.19
2018-04-28T10:58:01.130Z,17.74
2018-04-28T11:00:29.415Z,17.79
2018-04-28T11:02:57.688Z,17.97
2018-04-28T11:05:26.069Z,18.32
2018-04-28T11:07:54.505Z,17.90
2018-04-28T11:10:22.773Z,17.65
2018-04-28T11:12:51.156Z,17.33
2018-04-28T11:15:19.793Z,17.39
2018-04-28T11:17:48.035Z,17.97
2018-04-28T11:20:16.348Z,18.35
2018-04-28T11:22:44.633Z,17.30
2018-04-28T11:25:12.887Z,17.58
2018-04-28T11:27:41.253Z,18.03
2018-04-28T11:30:09.532Z,18.82
2018-04-28T11:32:37.846Z,18.12
2018-04-28T11:35:07.342Z,18.28
2018-04-28T11:37:35.642Z,17.85
2018-04-28T11:40:08.018Z,17.98
2018-04-28T11:42:36.330Z,17.88
2018-04-28T11:45:07.847Z,18.21
2018-04-28T11:47:36.157Z,17.82
2018-04-28T11:50:07.977Z,17.68
2018-04-28T11:52:36.276Z,17.76
2018-04-28T11:55:08.391Z,18.03
2018-04-28T11:57:36.676Z,18.90
2018-04-28T12:00:07.886Z,17.42
2018-04-28T12:02:36.239Z,17.95
2018-04-28T12:05:08.374Z,17.58
2018-04-28T12:07:36.724Z,17.71
2018-04-28T12:10:06.829Z,17.85
2018-04-28T12:12:35.103Z,18.75
2018-04-28T12:15:06.540Z,18.57
2018-04-28T12:17:34.886Z,18.10
2018-04-28T12:20:06.498Z,18.32
2018-04-28T12:22:34.755Z,18.50
2018-04-28T12:25:05.552Z,18.94
2018-04-28T12:27:33.840Z,19.45
2018-04-28T12:30:07.421Z,18.26
2018-04-28T12:32:35.714Z,18.74
2018-04-28T12:35:07.307Z,18.60
2018-04-28T12:37:35.598Z,18.51
2018-04-28T12:40:05.548Z,18.03
2018-04-28T12:42:33.830Z,18.63
2018-04-28T12:45:05.390Z,18.50
2018-04-28T12:47:33.657Z,18.81
2018-04-28T12:50:04.967Z,18.98
2018-04-28T12:52:33.239Z,18.83
2018-04-28T12:55:08.090Z,19.44
2018-04-28T12:57:36.359Z,19.24
2018-04-28T13:00:05.585Z,18.71
2018-04-28T13:02:33.879Z,18.50
2018-04-28T13:05:05.826Z,18.25
2018-04-28T13:07:34.195Z,18.40
2018-04-28T13:10:08.248Z,18.33
2018-04-28T13:12:36.535Z,18.32
2018-04-28T13:15:05.870Z,18.32
2018-04-28T13:17:34.316Z,18.19
2018-04-28T13:20:05.855Z,18.57
2018-04-28T13:22:34.195Z,18.91
2018-04-28T13:25:06.026Z,19.16
2018-04-28T13:27:34.275Z,19.39
2018-04-28T13:30:06.180Z,19.48
2018-04-28T13:32:34.459Z,19.48
2018-04-28T13:35:05.880Z,19.16
2018-04-28T13:37:34.176Z,19.36
2018-04-28T13:40:05.578Z,19.76
2018-04-28T13:42:33.895Z,19.68
2018-04-28T13:45:05.299Z,19.72
2018-04-28T13:47:33.564Z,19.48
2018-04-28T13:50:05.055Z,19.12
2018-04-28T13:52:33.378Z,19.12
2018-04-28T13:55:08.176Z,19.35
2018-04-28T13:57:36.591Z,19.64
2018-04-28T14:00:06.556Z,19.88
2018-04-28T14:02:34.812Z,19.91
2018-04-28T14:05:06.491Z,19.28
2018-04-28T14:07:34.957Z,19.58
2018-04-28T14:10:06.484Z,19.71
2018-04-28T14:12:34.759Z,19.88
2018-04-28T14:15:06.526Z,19.91
2018-04-28T14:17:34.794Z,19.59
2018-04-28T14:20:06.140Z,19.59
2018-04-28T14:22:34.405Z,19.23
2018-04-28T14:25:06.088Z,19.52
2018-04-28T14:27:34.383Z,19.32
2018-04-28T14:30:06.305Z,19.43
2018-04-28T14:32:34.984Z,19.71
2018-04-28T14:35:07.768Z,19.76
2018-04-28T14:37:36.056Z,20.45
2018-04-28T14:40:07.817Z,20.45
2018-04-28T14:42:41.735Z,20.69
2018-04-28T14:45:10.036Z,20.91
2018-04-28T14:47:38.304Z,20.91
2018-04-28T14:50:06.615Z,19.65
2018-04-28T14:52:34.895Z,19.13
2018-04-28T14:55:06.855Z,19.12
2018-04-28T14:57:35.168Z,19.44
2018-04-28T15:00:07.308Z,19.39
2018-04-28T15:02:35.612Z,18.91
2018-04-28T15:05:07.538Z,19.39
2018-04-28T15:07:35.867Z,19.66
2018-04-28T15:10:08.936Z,19.47
2018-04-28T15:12:37.232Z,19.48
2018-04-28T15:15:06.331Z,19.71
2018-04-28T15:17:34.915Z,19.91
2018-04-28T15:20:06.144Z,19.84
2018-04-28T15:22:34.413Z,20.03
2018-04-28T15:25:07.350Z,19.57
2018-04-28T15:27:35.664Z,19.69
2018-04-28T15:30:08.011Z,19.63
2018-04-28T15:32:36.307Z,19.57
2018-04-28T15:35:07.499Z,19.30
2018-04-28T15:37:35.811Z,19.28
2018-04-28T15:40:07.230Z,19.36
2018-04-28T15:42:35.537Z,19.05
2018-04-28T15:45:06.048Z,18.92
2018-04-28T15:47:34.350Z,18.98
2018-04-28T15:50:06.182Z,18.84
2018-04-28T15:52:34.745Z,18.79
2018-04-28T15:55:06.268Z,18.84
2018-04-28T15:57:34.535Z,18.67
2018-04-28T16:00:08.596Z,18.53
2018-04-28T16:02:36.959Z,18.68
2018-04-28T16:05:06.042Z,18.80
2018-04-28T16:07:34.334Z,18.84
2018-04-28T16:10:07.261Z,18.87
2018-04-28T16:12:35.539Z,18.81
2018-04-28T16:15:06.972Z,18.93
2018-04-28T16:17:35.246Z,19.03
2018-04-28T16:20:06.882Z,18.82
2018-04-28T16:22:35.131Z,18.68
2018-04-28T16:25:06.891Z,18.82
2018-04-28T16:27:35.431Z,18.65
2018-04-28T16:30:08.693Z,18.55
2018-04-28T16:32:36.987Z,18.51
2018-04-28T16:35:06.287Z,18.57
2018-04-28T16:37:34.804Z,18.67
2018-04-28T16:40:06.082Z,18.61
2018-04-28T16:42:34.751Z,18.55
2018-04-28T16:45:06.138Z,18.54
2018-04-28T16:47:34.960Z,18.85
2018-04-28T16:50:06.938Z,18.82
2018-04-28T16:52:35.238Z,18.51
2018-04-28T16:55:06.834Z,18.36
2018-04-28T16:57:35.118Z,18.41
2018-04-28T17:00:07.034Z,18.38
2018-04-28T17:02:35.363Z,18.30
2018-04-28T17:05:07.505Z,18.28
2018-04-28T17:07:35.787Z,18.30
2018-04-28T17:10:06.178Z,18.52
2018-04-28T17:12:34.509Z,18.29
2018-04-28T17:15:09.399Z,18.10
2018-04-28T17:18:00.646Z,18.10
2018-04-28T17:20:28.913Z,18.14
2018-04-28T17:22:57.172Z,18.24
2018-04-28T17:25:25.452Z,18.27
2018-04-28T17:27:53.780Z,18.39
2018-04-28T17:30:22.057Z,18.45
2018-04-28T17:32:50.327Z,18.14
2018-04-28T17:35:18.749Z,18.04
2018-04-28T17:37:47.057Z,18.29
2018-04-28T17:40:15.347Z,18.39
2018-04-28T17:42:43.687Z,18.44
2018-04-28T17:45:12.279Z,18.44
2018-04-28T17:47:40.714Z,18.12
2018-04-28T17:50:08.989Z,18.32
2018-04-28T17:52:37.270Z,18.22
2018-04-28T17:55:06.404Z,17.96
2018-04-28T17:57:34.698Z,17.93
2018-04-28T18:00:06.008Z,17.99
2018-04-28T18:02:35.048Z,18.04
2018-04-28T18:05:06.412Z,17.97
2018-04-28T18:07:35.112Z,17.79
2018-04-28T18:10:06.255Z,17.73
2018-04-28T18:12:34.638Z,17.55
2018-04-28T18:15:06.092Z,17.51
2018-04-28T18:17:34.401Z,17.70
2018-04-28T18:20:09.477Z,17.73
2018-04-28T18:22:37.829Z,17.92
2018-04-28T18:25:06.852Z,17.77
2018-04-28T18:27:35.164Z,17.67
2018-04-28T18:30:06.348Z,17.50
2018-04-28T18:32:34.625Z,17.60
2018-04-28T18:35:07.364Z,17.73
2018-04-28T18:37:36.328Z,17.61
2018-04-28T18:40:07.622Z,17.57
2018-04-28T18:42:36.013Z,17.47
2018-04-28T18:45:07.962Z,17.39
2018-04-28T18:47:36.384Z,17.42
2018-04-28T18:50:08.402Z,17.39
2018-04-28T18:52:37.671Z,17.32
2018-04-28T18:55:07.226Z,17.34
2018-04-28T18:57:35.692Z,17.33
2018-04-28T19:00:08.792Z,17.25
2018-04-28T19:02:37.229Z,17.27
2018-04-28T19:05:06.626Z,17.15
2018-04-28T19:07:35.120Z,16.87
2018-04-28T19:10:07.220Z,16.85
2018-04-28T19:12:35.649Z,16.81
2018-04-28T19:15:07.510Z,16.75
2018-04-28T19:17:36.102Z,16.75
2018-04-28T19:20:08.229Z,16.59
2018-04-28T19:22:36.932Z,16.51
2018-04-28T19:25:06.918Z,16.59
2018-04-28T19:27:35.253Z,16.58
2018-04-28T19:30:07.672Z,16.67
2018-04-28T19:32:36.016Z,16.58
2018-04-28T19:35:07.930Z,16.39
2018-04-28T19:37:36.244Z,16.45
2018-04-28T19:40:11.837Z,16.56
2018-04-28T19:42:40.318Z,16.49
2018-04-28T19:45:12.691Z,16.24
2018-04-28T19:47:41.071Z,16.08
2018-04-28T19:50:14.127Z,15.93
2018-04-28T19:52:42.595Z,15.85
2018-04-28T19:55:10.993Z,15.84
2018-04-28T19:57:39.287Z,15.83
2018-04-28T20:00:08.955Z,15.84
2018-04-28T20:02:37.748Z,15.83
2018-04-28T20:05:06.810Z,15.82
2018-04-28T20:07:35.170Z,15.83
2018-04-28T20:10:08.048Z,16.02
2018-04-28T20:12:36.656Z,16.02
2018-04-28T20:15:12.339Z,15.90
2018-04-28T20:17:40.739Z,15.81
2018-04-28T20:20:10.124Z,15.72
2018-04-28T20:22:50.126Z,15.69
2018-04-28T20:25:22.500Z,15.67
2018-04-28T20:27:50.882Z,15.66
2018-04-28T20:30:19.206Z,15.61
2018-04-28T20:32:47.511Z,15.72
2018-04-28T20:35:15.850Z,15.84
2018-04-28T20:37:44.057Z,15.89
2018-04-28T20:40:12.451Z,15.82
2018-04-28T20:42:40.789Z,15.72
2018-04-28T20:45:09.636Z,15.66
2018-04-28T20:47:37.949Z,15.59
2018-04-28T20:50:06.467Z,15.55
2018-04-28T20:52:34.732Z,15.52
2018-04-28T20:55:05.744Z,15.43
2018-04-28T20:57:34.058Z,15.43
2018-04-28T21:00:05.829Z,15.40
2018-04-28T21:02:34.127Z,15.37
2018-04-28T21:05:05.642Z,15.44
2018-04-28T21:07:33.907Z,15.43
2018-04-28T21:10:08.860Z,15.36
2018-04-28T21:12:37.230Z,15.49
2018-04-28T21:15:05.643Z,15.49
2018-04-28T21:17:33.919Z,15.32
2018-04-28T21:20:05.470Z,15.39
2018-04-28T21:22:33.747Z,15.42
2018-04-28T21:25:06.738Z,15.34
2018-04-28T21:27:35.007Z,15.35
2018-04-28T21:30:06.778Z,15.28
2018-04-28T21:32:35.081Z,15.30
2018-04-28T21:35:06.600Z,15.21
2018-04-28T21:37:34.866Z,15.31
2018-04-28T21:40:06.329Z,15.26
2018-04-28T21:42:34.798Z,15.40
2018-04-28T21:45:06.195Z,15.25
2018-04-28T21:47:34.464Z,15.36
2018-04-28T21:50:05.983Z,15.48
2018-04-28T21:52:34.216Z,15.49
2018-04-28T21:55:05.590Z,15.36
2018-04-28T21:57:33.905Z,15.43
2018-04-28T22:00:05.234Z,15.36
2018-04-28T22:02:33.495Z,15.34
2018-04-28T22:05:04.984Z,15.19
2018-04-28T22:07:33.540Z,15.10
2018-04-28T22:10:05.296Z,15.20
2018-04-28T22:12:33.590Z,15.18
2018-04-28T22:15:05.431Z,15.10
2018-04-28T22:17:33.826Z,15.05
2018-04-28T22:20:06.060Z,15.09
2018-04-28T22:22:34.335Z,14.97
2018-04-28T22:25:05.851Z,15.03
2018-04-28T22:27:34.144Z,15.02
2018-04-28T22:30:08.799Z,14.93
2018-04-28T22:32:37.398Z,14.91
2018-04-28T22:35:07.046Z,14.86
2018-04-28T22:37:35.324Z,14.82
2018-04-28T22:40:06.640Z,14.68
2018-04-28T22:42:34.924Z,14.60
2018-04-28T22:45:06.267Z,14.81
2018-04-28T22:47:34.604Z,14.80
2018-04-28T22:50:09.718Z,14.81
2018-04-28T22:52:37.991Z,14.81
2018-04-28T22:55:07.106Z,14.84
2018-04-28T22:57:35.381Z,14.88
2018-04-28T23:00:06.652Z,14.80
2018-04-28T23:02:34.932Z,14.68
2018-04-28T23:05:05.538Z,14.67
2018-04-28T23:07:33.833Z,14.57
2018-04-28T23:10:05.566Z,14.44
2018-04-28T23:12:33.852Z,14.63
2018-04-28T23:15:07.080Z,14.57
2018-04-28T23:17:35.367Z,14.58
2018-04-28T23:20:07.279Z,14.51
2018-04-28T23:22:35.554Z,14.64
2018-04-28T23:25:06.961Z,14.58
2018-04-28T23:27:35.256Z,14.57
2018-04-28T23:30:06.962Z,14.55
2018-04-28T23:32:35.279Z,14.60
2018-04-28T23:35:06.585Z,14.58
2018-04-28T23:37:34.875Z,14.54
2018-04-28T23:40:06.918Z,14.46
2018-04-28T23:42:35.239Z,14.49
2018-04-28T23:45:06.639Z,14.39
2018-04-28T23:47:34.939Z,14.37
2018-04-28T23:50:06.441Z,14.41
2018-04-28T23:52:34.955Z,14.38
2018-04-28T23:55:06.495Z,14.40
2018-04-28T23:57:34.763Z,14.39
